sensor_id;sensor_type;location;lat;lon;timestamp;pressure;altitude;pressure_sealevel;temperature;humidity
35716;BME280;21840;44.920;8.616;2023-03-04T00:01:13;100627.75;;;11.72;46.84
35716;BME280;21840;44.920;8.616;2023-03-04T00:03:40;100636.00;;;12.08;46.88
35716;BME280;21840;44.920;8.616;2023-03-04T00:06:05;100635.41;;;11.85;46.92
35716;BME280;21840;44.920;8.616;2023-03-04T00:08:31;100633.22;;;12.00;46.74
35716;BME280;21840;44.920;8.616;2023-03-04T00:10:57;100637.69;;;12.09;46.74
35716;BME280;21840;44.920;8.616;2023-03-04T00:13:22;100640.03;;;12.32;46.04
35716;BME280;21840;44.920;8.616;2023-03-04T00:15:48;100637.00;;;12.46;45.92
35716;BME280;21840;44.920;8.616;2023-03-04T00:18:14;100632.66;;;12.45;45.62
35716;BME280;21840;44.920;8.616;2023-03-04T00:20:40;100636.84;;;12.38;45.69
35716;BME280;21840;44.920;8.616;2023-03-04T00:23:05;100637.91;;;12.74;45.49
35716;BME280;21840;44.920;8.616;2023-03-04T00:25:31;100639.34;;;12.49;45.71
35716;BME280;21840;44.920;8.616;2023-03-04T00:27:57;100641.44;;;12.16;46.56
35716;BME280;21840;44.920;8.616;2023-03-04T00:30:23;100645.88;;;12.16;46.07
35716;BME280;21840;44.920;8.616;2023-03-04T00:32:49;100646.59;;;11.77;47.50
35716;BME280;21840;44.920;8.616;2023-03-04T00:35:14;100646.53;;;12.18;46.65
35716;BME280;21840;44.920;8.616;2023-03-04T00:37:40;100647.78;;;12.43;46.38
35716;BME280;21840;44.920;8.616;2023-03-04T00:40:06;100643.56;;;11.72;47.24
35716;BME280;21840;44.920;8.616;2023-03-04T00:42:32;100647.09;;;12.41;46.07
35716;BME280;21840;44.920;8.616;2023-03-04T00:44:57;100656.22;;;12.66;45.75
35716;BME280;21840;44.920;8.616;2023-03-04T00:47:23;100649.88;;;12.49;45.99
35716;BME280;21840;44.920;8.616;2023-03-04T00:49:48;100646.81;;;12.24;46.19
35716;BME280;21840;44.920;8.616;2023-03-04T00:52:14;100647.66;;;11.96;47.11
35716;BME280;21840;44.920;8.616;2023-03-04T00:54:39;100655.66;;;11.94;47.42
35716;BME280;21840;44.920;8.616;2023-03-04T00:57:04;100647.94;;;12.12;46.71
35716;BME280;21840;44.920;8.616;2023-03-04T00:59:30;100657.50;;;12.03;47.19
35716;BME280;21840;44.920;8.616;2023-03-04T01:01:55;100654.44;;;11.89;47.27
35716;BME280;21840;44.920;8.616;2023-03-04T01:04:21;100654.84;;;11.94;47.40
35716;BME280;21840;44.920;8.616;2023-03-04T01:06:46;100655.06;;;11.81;47.30
35716;BME280;21840;44.920;8.616;2023-03-04T01:09:11;100648.09;;;11.70;47.75
35716;BME280;21840;44.920;8.616;2023-03-04T01:11:37;100637.97;;;12.06;46.85
35716;BME280;21840;44.920;8.616;2023-03-04T01:14:02;100647.81;;;12.14;46.54
35716;BME280;21840;44.920;8.616;2023-03-04T01:16:28;100645.66;;;11.78;47.31
35716;BME280;21840;44.920;8.616;2023-03-04T01:18:53;100645.69;;;11.98;47.06
35716;BME280;21840;44.920;8.616;2023-03-04T01:21:19;100640.25;;;11.80;46.97
35716;BME280;21840;44.920;8.616;2023-03-04T01:23:44;100634.84;;;11.72;47.44
35716;BME280;21840;44.920;8.616;2023-03-04T01:26:10;100637.06;;;11.76;47.40
35716;BME280;21840;44.920;8.616;2023-03-04T01:28:35;100630.53;;;11.61;47.54
35716;BME280;21840;44.920;8.616;2023-03-04T01:31:02;100630.28;;;11.74;47.39
35716;BME280;21840;44.920;8.616;2023-03-04T01:33:28;100621.31;;;11.36;48.13
35716;BME280;21840;44.920;8.616;2023-03-04T01:35:53;100631.53;;;11.29;48.21
35716;BME280;21840;44.920;8.616;2023-03-04T01:38:19;100631.03;;;11.55;47.73
35716;BME280;21840;44.920;8.616;2023-03-04T01:40:44;100629.56;;;11.72;47.28
35716;BME280;21840;44.920;8.616;2023-03-04T01:43:18;100629.00;;;11.68;47.50
35716;BME280;21840;44.920;8.616;2023-03-04T01:45:47;100621.94;;;11.59;47.60
35716;BME280;21840;44.920;8.616;2023-03-04T01:48:16;100631.53;;;11.79;47.14
35716;BME280;21840;44.920;8.616;2023-03-04T01:50:42;100628.97;;;11.49;47.53
35716;BME280;21840;44.920;8.616;2023-03-04T01:53:14;100629.28;;;11.65;47.58
35716;BME280;21840;44.920;8.616;2023-03-04T01:55:41;100625.69;;;11.26;48.39
35716;BME280;21840;44.920;8.616;2023-03-04T01:58:09;100621.63;;;11.52;48.08
35716;BME280;21840;44.920;8.616;2023-03-04T02:00:34;100623.16;;;11.14;48.93
35716;BME280;21840;44.920;8.616;2023-03-04T02:03:05;100622.84;;;11.48;48.25
35716;BME280;21840;44.920;8.616;2023-03-04T02:05:32;100618.19;;;11.11;49.17
35716;BME280;21840;44.920;8.616;2023-03-04T02:07:59;100620.78;;;10.80;49.54
35716;BME280;21840;44.920;8.616;2023-03-04T02:10:26;100615.88;;;11.28;48.70
35716;BME280;21840;44.920;8.616;2023-03-04T02:12:52;100618.78;;;11.25;48.38
35716;BME280;21840;44.920;8.616;2023-03-04T02:15:18;100607.53;;;11.53;47.99
35716;BME280;21840;44.920;8.616;2023-03-04T02:17:44;100610.03;;;11.64;47.51
35716;BME280;21840;44.920;8.616;2023-03-04T02:23:08;100603.47;;;11.39;48.08
35716;BME280;21840;44.920;8.616;2023-03-04T02:25:47;100600.56;;;11.02;49.47
35716;BME280;21840;44.920;8.616;2023-03-04T02:28:15;100600.09;;;11.28;48.49
35716;BME280;21840;44.920;8.616;2023-03-04T02:30:41;100603.72;;;11.27;48.46
35716;BME280;21840;44.920;8.616;2023-03-04T02:33:13;100600.34;;;11.15;48.80
35716;BME280;21840;44.920;8.616;2023-03-04T02:35:40;100598.53;;;10.54;50.56
35716;BME280;21840;44.920;8.616;2023-03-04T02:38:05;100595.19;;;11.04;49.61
35716;BME280;21840;44.920;8.616;2023-03-04T02:40:33;100601.84;;;10.77;50.17
35716;BME280;21840;44.920;8.616;2023-03-04T02:43:00;100600.56;;;10.29;51.27
35716;BME280;21840;44.920;8.616;2023-03-04T02:48:07;100595.03;;;10.74;49.91
35716;BME280;21840;44.920;8.616;2023-03-04T02:50:38;100592.13;;;11.08;49.59
35716;BME280;21840;44.920;8.616;2023-03-04T02:53:05;100591.06;;;11.11;49.51
35716;BME280;21840;44.920;8.616;2023-03-04T02:55:31;100600.03;;;11.08;49.35
35716;BME280;21840;44.920;8.616;2023-03-04T02:57:57;100606.38;;;11.06;49.54
35716;BME280;21840;44.920;8.616;2023-03-04T03:00:23;100604.13;;;10.91;49.66
35716;BME280;21840;44.920;8.616;2023-03-04T03:02:49;100606.38;;;11.06;49.48
35716;BME280;21840;44.920;8.616;2023-03-04T03:05:15;100607.72;;;10.69;49.92
35716;BME280;21840;44.920;8.616;2023-03-04T03:07:41;100601.78;;;10.67;50.42
35716;BME280;21840;44.920;8.616;2023-03-04T03:10:07;100601.22;;;10.64;50.34
35716;BME280;21840;44.920;8.616;2023-03-04T03:12:33;100603.13;;;10.62;50.53
35716;BME280;21840;44.920;8.616;2023-03-04T03:14:59;100596.69;;;10.96;49.72
35716;BME280;21840;44.920;8.616;2023-03-04T03:17:24;100604.50;;;10.66;49.67
35716;BME280;21840;44.920;8.616;2023-03-04T03:19:50;100598.94;;;10.38;50.99
35716;BME280;21840;44.920;8.616;2023-03-04T03:22:16;100592.38;;;10.65;50.25
35716;BME280;21840;44.920;8.616;2023-03-04T03:24:41;100596.09;;;10.93;49.41
35716;BME280;21840;44.920;8.616;2023-03-04T03:27:07;100594.56;;;10.90;49.31
35716;BME280;21840;44.920;8.616;2023-03-04T03:29:32;100602.94;;;10.53;50.11
35716;BME280;21840;44.920;8.616;2023-03-04T03:31:58;100593.31;;;10.43;50.64
35716;BME280;21840;44.920;8.616;2023-03-04T03:34:23;100603.53;;;10.36;50.67
35716;BME280;21840;44.920;8.616;2023-03-04T03:36:49;100597.03;;;10.08;51.10
35716;BME280;21840;44.920;8.616;2023-03-04T03:39:15;100597.13;;;10.18;51.11
35716;BME280;21840;44.920;8.616;2023-03-04T03:41:40;100600.00;;;10.47;50.39
35716;BME280;21840;44.920;8.616;2023-03-04T03:44:06;100595.81;;;10.86;49.43
35716;BME280;21840;44.920;8.616;2023-03-04T03:46:32;100592.69;;;10.71;49.91
35716;BME280;21840;44.920;8.616;2023-03-04T03:48:57;100593.31;;;10.43;50.40
35716;BME280;21840;44.920;8.616;2023-03-04T03:51:22;100608.44;;;10.18;50.92
35716;BME280;21840;44.920;8.616;2023-03-04T03:53:48;100603.13;;;10.41;50.85
35716;BME280;21840;44.920;8.616;2023-03-04T03:56:13;100599.41;;;10.43;50.31
35716;BME280;21840;44.920;8.616;2023-03-04T03:58:39;100611.94;;;10.19;51.10
35716;BME280;21840;44.920;8.616;2023-03-04T04:01:04;100603.84;;;10.10;51.07
35716;BME280;21840;44.920;8.616;2023-03-04T04:03:29;100608.75;;;9.71;52.04
35716;BME280;21840;44.920;8.616;2023-03-04T04:05:55;100596.13;;;9.65;52.09
35716;BME280;21840;44.920;8.616;2023-03-04T04:08:20;100596.38;;;9.62;52.64
35716;BME280;21840;44.920;8.616;2023-03-04T04:10:46;100596.56;;;9.70;52.05
35716;BME280;21840;44.920;8.616;2023-03-04T04:13:11;100593.75;;;9.62;52.49
35716;BME280;21840;44.920;8.616;2023-03-04T04:15:37;100592.34;;;9.36;52.80
35716;BME280;21840;44.920;8.616;2023-03-04T04:18:04;100595.72;;;10.13;51.16
35716;BME280;21840;44.920;8.616;2023-03-04T04:20:29;100590.97;;;10.07;50.87
35716;BME280;21840;44.920;8.616;2023-03-04T04:22:55;100576.75;;;10.42;50.52
35716;BME280;21840;44.920;8.616;2023-03-04T04:25:21;100587.44;;;10.50;50.59
35716;BME280;21840;44.920;8.616;2023-03-04T04:27:46;100578.59;;;10.30;50.56
35716;BME280;21840;44.920;8.616;2023-03-04T04:30:12;100584.34;;;10.24;50.52
35716;BME280;21840;44.920;8.616;2023-03-04T04:32:37;100585.16;;;10.36;50.47
35716;BME280;21840;44.920;8.616;2023-03-04T04:35:03;100580.88;;;9.59;52.01
35716;BME280;21840;44.920;8.616;2023-03-04T04:37:29;100586.06;;;9.82;51.49
35716;BME280;21840;44.920;8.616;2023-03-04T04:39:55;100582.66;;;10.23;50.74
35716;BME280;21840;44.920;8.616;2023-03-04T04:42:21;100581.66;;;9.82;51.99
35716;BME280;21840;44.920;8.616;2023-03-04T04:44:46;100583.97;;;9.53;52.72
35716;BME280;21840;44.920;8.616;2023-03-04T04:47:12;100576.84;;;9.55;52.49
35716;BME280;21840;44.920;8.616;2023-03-04T04:49:37;100578.53;;;9.88;51.94
35716;BME280;21840;44.920;8.616;2023-03-04T04:52:03;100574.50;;;9.73;52.28
35716;BME280;21840;44.920;8.616;2023-03-04T04:54:29;100576.78;;;9.78;52.05
35716;BME280;21840;44.920;8.616;2023-03-04T04:56:54;100584.38;;;9.81;51.06
35716;BME280;21840;44.920;8.616;2023-03-04T04:59:20;100582.97;;;9.77;50.97
35716;BME280;21840;44.920;8.616;2023-03-04T05:01:46;100590.84;;;9.77;51.19
35716;BME280;21840;44.920;8.616;2023-03-04T05:04:12;100590.25;;;9.73;50.95
35716;BME280;21840;44.920;8.616;2023-03-04T05:06:37;100587.00;;;9.81;50.65
35716;BME280;21840;44.920;8.616;2023-03-04T05:09:03;100592.56;;;9.66;50.80
35716;BME280;21840;44.920;8.616;2023-03-04T05:11:29;100588.03;;;9.46;51.33
35716;BME280;21840;44.920;8.616;2023-03-04T05:13:54;100584.09;;;9.63;51.03
35716;BME280;21840;44.920;8.616;2023-03-04T05:16:20;100579.06;;;9.05;52.36
35716;BME280;21840;44.920;8.616;2023-03-04T05:18:45;100587.88;;;9.04;52.07
35716;BME280;21840;44.920;8.616;2023-03-04T05:21:11;100581.69;;;9.16;52.08
35716;BME280;21840;44.920;8.616;2023-03-04T05:23:38;100574.06;;;9.02;52.38
35716;BME280;21840;44.920;8.616;2023-03-04T05:26:05;100579.28;;;9.02;52.17
35716;BME280;21840;44.920;8.616;2023-03-04T05:28:32;100580.22;;;8.67;52.93
35716;BME280;21840;44.920;8.616;2023-03-04T05:30:57;100584.53;;;9.02;52.61
35716;BME280;21840;44.920;8.616;2023-03-04T05:33:23;100585.47;;;9.12;52.57
35716;BME280;21840;44.920;8.616;2023-03-04T05:35:49;100589.88;;;9.00;52.98
35716;BME280;21840;44.920;8.616;2023-03-04T05:38:16;100591.91;;;8.74;53.21
35716;BME280;21840;44.920;8.616;2023-03-04T05:40:43;100587.09;;;8.46;53.94
35716;BME280;21840;44.920;8.616;2023-03-04T05:43:09;100595.25;;;8.99;52.85
35716;BME280;21840;44.920;8.616;2023-03-04T05:45:35;100594.28;;;9.00;52.44
35716;BME280;21840;44.920;8.616;2023-03-04T05:48:02;100596.19;;;8.64;53.22
35716;BME280;21840;44.920;8.616;2023-03-04T05:50:28;100600.47;;;8.88;52.76
35716;BME280;21840;44.920;8.616;2023-03-04T05:52:54;100595.41;;;8.51;53.45
35716;BME280;21840;44.920;8.616;2023-03-04T05:55:19;100598.22;;;8.94;52.49
35716;BME280;21840;44.920;8.616;2023-03-04T05:57:45;100596.66;;;9.25;51.92
35716;BME280;21840;44.920;8.616;2023-03-04T06:00:12;100603.09;;;9.33;51.63
35716;BME280;21840;44.920;8.616;2023-03-04T06:02:38;100594.75;;;9.27;51.53
35716;BME280;21840;44.920;8.616;2023-03-04T06:05:05;100605.25;;;9.05;51.87
35716;BME280;21840;44.920;8.616;2023-03-04T06:07:31;100602.97;;;9.00;52.03
35716;BME280;21840;44.920;8.616;2023-03-04T06:09:56;100609.28;;;8.87;52.38
35716;BME280;21840;44.920;8.616;2023-03-04T06:12:22;100607.75;;;8.84;52.73
35716;BME280;21840;44.920;8.616;2023-03-04T06:14:47;100604.06;;;8.98;52.41
35716;BME280;21840;44.920;8.616;2023-03-04T06:17:13;100611.44;;;8.93;52.48
35716;BME280;21840;44.920;8.616;2023-03-04T06:19:39;100607.16;;;9.03;52.47
35716;BME280;21840;44.920;8.616;2023-03-04T06:22:06;100603.22;;;9.20;52.03
35716;BME280;21840;44.920;8.616;2023-03-04T06:24:32;100610.59;;;9.03;52.47
35716;BME280;21840;44.920;8.616;2023-03-04T06:26:57;100610.13;;;9.21;52.37
35716;BME280;21840;44.920;8.616;2023-03-04T06:29:23;100615.25;;;9.11;52.70
35716;BME280;21840;44.920;8.616;2023-03-04T06:31:48;100610.00;;;9.00;52.73
35716;BME280;21840;44.920;8.616;2023-03-04T06:34:14;100609.75;;;8.80;53.23
35716;BME280;21840;44.920;8.616;2023-03-04T06:36:39;100609.53;;;9.28;52.11
35716;BME280;21840;44.920;8.616;2023-03-04T06:39:06;100611.13;;;9.63;51.15
35716;BME280;21840;44.920;8.616;2023-03-04T06:41:32;100617.84;;;9.45;50.88
35716;BME280;21840;44.920;8.616;2023-03-04T06:43:58;100608.91;;;9.59;50.68
35716;BME280;21840;44.920;8.616;2023-03-04T06:46:24;100616.63;;;9.60;50.74
35716;BME280;21840;44.920;8.616;2023-03-04T06:48:49;100623.34;;;9.08;51.64
35716;BME280;21840;44.920;8.616;2023-03-04T06:51:15;100616.50;;;9.62;50.79
35716;BME280;21840;44.920;8.616;2023-03-04T06:53:41;100629.72;;;9.71;50.27
35716;BME280;21840;44.920;8.616;2023-03-04T06:56:08;100625.66;;;9.79;50.00
35716;BME280;21840;44.920;8.616;2023-03-04T06:58:34;100624.06;;;9.21;51.14
35716;BME280;21840;44.920;8.616;2023-03-04T07:01:29;100634.50;;;9.66;50.27
35716;BME280;21840;44.920;8.616;2023-03-04T07:03:55;100627.03;;;9.94;49.80
35716;BME280;21840;44.920;8.616;2023-03-04T07:06:23;100636.81;;;9.37;50.66
35716;BME280;21840;44.920;8.616;2023-03-04T07:08:49;100637.16;;;9.99;49.45
35716;BME280;21840;44.920;8.616;2023-03-04T07:11:15;100634.81;;;9.84;50.04
35716;BME280;21840;44.920;8.616;2023-03-04T07:13:41;100641.34;;;10.01;49.62
35716;BME280;21840;44.920;8.616;2023-03-04T07:16:08;100639.47;;;9.81;50.10
35716;BME280;21840;44.920;8.616;2023-03-04T07:18:35;100647.25;;;10.14;49.63
35716;BME280;21840;44.920;8.616;2023-03-04T07:21:00;100644.63;;;10.47;49.14
35716;BME280;21840;44.920;8.616;2023-03-04T07:23:26;100644.44;;;10.39;49.35
35716;BME280;21840;44.920;8.616;2023-03-04T07:25:51;100650.59;;;10.49;49.30
35716;BME280;21840;44.920;8.616;2023-03-04T07:28:17;100649.34;;;10.53;49.25
35716;BME280;21840;44.920;8.616;2023-03-04T07:30:43;100653.59;;;10.65;48.64
35716;BME280;21840;44.920;8.616;2023-03-04T07:33:09;100656.16;;;10.76;48.75
35716;BME280;21840;44.920;8.616;2023-03-04T07:35:34;100650.97;;;10.65;48.65
35716;BME280;21840;44.920;8.616;2023-03-04T07:38:00;100662.69;;;10.82;48.31
35716;BME280;21840;44.920;8.616;2023-03-04T07:40:25;100659.28;;;10.49;48.78
35716;BME280;21840;44.920;8.616;2023-03-04T07:42:52;100659.09;;;11.04;47.92
35716;BME280;21840;44.920;8.616;2023-03-04T07:45:18;100661.28;;;10.99;47.78
35716;BME280;21840;44.920;8.616;2023-03-04T07:47:43;100662.25;;;11.29;47.54
35716;BME280;21840;44.920;8.616;2023-03-04T07:50:10;100658.53;;;10.79;47.55
35716;BME280;21840;44.920;8.616;2023-03-04T07:52:40;100655.09;;;11.10;47.46
35716;BME280;21840;44.920;8.616;2023-03-04T07:55:06;100657.38;;;11.24;47.46
35716;BME280;21840;44.920;8.616;2023-03-04T07:57:32;100662.28;;;11.38;46.99
35716;BME280;21840;44.920;8.616;2023-03-04T07:59:57;100665.16;;;11.35;47.23
35716;BME280;21840;44.920;8.616;2023-03-04T08:02:23;100659.66;;;11.08;47.76
35716;BME280;21840;44.920;8.616;2023-03-04T08:04:48;100658.16;;;11.15;48.00
35716;BME280;21840;44.920;8.616;2023-03-04T08:07:14;100661.66;;;11.56;47.38
35716;BME280;21840;44.920;8.616;2023-03-04T08:09:39;100658.09;;;11.66;47.36
35716;BME280;21840;44.920;8.616;2023-03-04T08:12:05;100655.97;;;11.51;46.96
35716;BME280;21840;44.920;8.616;2023-03-04T08:14:30;100657.22;;;11.56;47.24
35716;BME280;21840;44.920;8.616;2023-03-04T08:16:56;100654.06;;;11.72;46.83
35716;BME280;21840;44.920;8.616;2023-03-04T08:19:21;100662.34;;;11.98;46.36
35716;BME280;21840;44.920;8.616;2023-03-04T08:21:47;100655.41;;;12.26;46.29
35716;BME280;21840;44.920;8.616;2023-03-04T08:24:12;100652.09;;;12.24;46.15
35716;BME280;21840;44.920;8.616;2023-03-04T08:26:41;100652.50;;;12.10;46.44
35716;BME280;21840;44.920;8.616;2023-03-04T08:29:08;100646.81;;;12.24;46.13
35716;BME280;21840;44.920;8.616;2023-03-04T08:31:35;100645.72;;;12.17;46.39
35716;BME280;21840;44.920;8.616;2023-03-04T08:34:02;100644.84;;;12.65;45.69
35716;BME280;21840;44.920;8.616;2023-03-04T08:36:27;100642.09;;;12.28;46.53
35716;BME280;21840;44.920;8.616;2023-03-04T08:38:53;100643.22;;;12.45;46.17
35716;BME280;21840;44.920;8.616;2023-03-04T08:41:18;100642.78;;;12.49;46.00
35716;BME280;21840;44.920;8.616;2023-03-04T08:43:44;100641.03;;;12.97;45.43
35716;BME280;21840;44.920;8.616;2023-03-04T08:46:10;100640.97;;;12.60;46.03
35716;BME280;21840;44.920;8.616;2023-03-04T08:48:36;100631.19;;;12.99;45.72
35716;BME280;21840;44.920;8.616;2023-03-04T08:51:07;100628.84;;;12.96;45.73
35716;BME280;21840;44.920;8.616;2023-03-04T08:53:32;100627.13;;;13.42;44.99
35716;BME280;21840;44.920;8.616;2023-03-04T08:55:58;100631.72;;;13.40;45.25
35716;BME280;21840;44.920;8.616;2023-03-04T08:58:23;100624.19;;;13.73;44.49
35716;BME280;21840;44.920;8.616;2023-03-04T09:00:49;100624.59;;;13.78;44.05
35716;BME280;21840;44.920;8.616;2023-03-04T09:03:16;100628.56;;;13.82;44.00
35716;BME280;21840;44.920;8.616;2023-03-04T09:05:44;100627.06;;;13.79;43.71
35716;BME280;21840;44.920;8.616;2023-03-04T09:08:09;100624.41;;;13.62;43.98
35716;BME280;21840;44.920;8.616;2023-03-04T09:10:35;100622.06;;;13.58;44.33
35716;BME280;21840;44.920;8.616;2023-03-04T09:13:00;100613.28;;;14.03;43.30
35716;BME280;21840;44.920;8.616;2023-03-04T09:15:26;100616.66;;;14.14;43.22
35716;BME280;21840;44.920;8.616;2023-03-04T09:17:52;100617.53;;;14.58;42.59
35716;BME280;21840;44.920;8.616;2023-03-04T09:20:17;100619.56;;;14.46;42.83
35716;BME280;21840;44.920;8.616;2023-03-04T09:22:43;100619.69;;;14.81;42.45
35716;BME280;21840;44.920;8.616;2023-03-04T09:25:10;100614.50;;;14.71;42.60
35716;BME280;21840;44.920;8.616;2023-03-04T09:27:37;100610.78;;;14.90;42.48
35716;BME280;21840;44.920;8.616;2023-03-04T09:30:03;100612.13;;;14.94;42.65
35716;BME280;21840;44.920;8.616;2023-03-04T09:32:29;100613.56;;;15.15;42.34
35716;BME280;21840;44.920;8.616;2023-03-04T09:34:54;100608.13;;;14.90;42.99
35716;BME280;21840;44.920;8.616;2023-03-04T09:37:20;100605.00;;;15.21;42.63
35716;BME280;21840;44.920;8.616;2023-03-04T09:39:45;100600.97;;;15.08;42.56
35716;BME280;21840;44.920;8.616;2023-03-04T09:42:22;100600.56;;;15.29;42.04
35716;BME280;21840;44.920;8.616;2023-03-04T09:44:51;100610.03;;;14.72;43.11
35716;BME280;21840;44.920;8.616;2023-03-04T09:47:19;100600.50;;;15.13;42.39
35716;BME280;21840;44.920;8.616;2023-03-04T09:50:00;100599.16;;;15.09;42.41
35716;BME280;21840;44.920;8.616;2023-03-04T09:55:17;100605.59;;;15.49;41.66
35716;BME280;21840;44.920;8.616;2023-03-04T09:58:06;100602.38;;;15.71;41.67
35716;BME280;21840;44.920;8.616;2023-03-04T10:00:46;100604.31;;;15.61;42.10
35716;BME280;21840;44.920;8.616;2023-03-04T10:03:17;100593.94;;;15.84;41.80
35716;BME280;21840;44.920;8.616;2023-03-04T10:06:06;100591.31;;;15.92;41.63
35716;BME280;21840;44.920;8.616;2023-03-04T10:13:46;100589.47;;;15.85;42.01
35716;BME280;21840;44.920;8.616;2023-03-04T10:16:18;100590.00;;;16.05;41.45
35716;BME280;21840;44.920;8.616;2023-03-04T10:19:07;100588.50;;;16.02;41.51
35716;BME280;21840;44.920;8.616;2023-03-04T10:21:44;100573.75;;;16.32;40.62
35716;BME280;21840;44.920;8.616;2023-03-04T10:24:11;100572.97;;;16.15;40.96
35716;BME280;21840;44.920;8.616;2023-03-04T10:26:41;100571.91;;;16.49;40.70
35716;BME280;21840;44.920;8.616;2023-03-04T10:29:13;100570.44;;;16.47;40.38
35716;BME280;21840;44.920;8.616;2023-03-04T10:31:40;100568.56;;;16.72;40.01
35716;BME280;21840;44.920;8.616;2023-03-04T10:34:09;100568.41;;;16.81;39.91
35716;BME280;21840;44.920;8.616;2023-03-04T10:37:04;100566.91;;;16.79;39.81
35716;BME280;21840;44.920;8.616;2023-03-04T10:39:39;100562.00;;;17.07;39.33
35716;BME280;21840;44.920;8.616;2023-03-04T10:44:51;100557.25;;;16.94;39.74
35716;BME280;21840;44.920;8.616;2023-03-04T10:47:17;100556.06;;;17.05;39.55
35716;BME280;21840;44.920;8.616;2023-03-04T10:49:56;100549.13;;;16.96;39.65
35716;BME280;21840;44.920;8.616;2023-03-04T10:52:38;100552.59;;;16.96;39.77
35716;BME280;21840;44.920;8.616;2023-03-04T10:55:15;100539.06;;;17.22;39.17
35716;BME280;21840;44.920;8.616;2023-03-04T10:57:42;100536.94;;;17.18;39.46
35716;BME280;21840;44.920;8.616;2023-03-04T11:02:47;100527.38;;;17.63;38.22
35716;BME280;21840;44.920;8.616;2023-03-04T11:07:43;100530.00;;;17.40;37.91
35716;BME280;21840;44.920;8.616;2023-03-04T11:12:36;100525.06;;;17.60;37.69
35716;BME280;21840;44.920;8.616;2023-03-04T11:15:02;100521.41;;;17.61;37.49
35716;BME280;21840;44.920;8.616;2023-03-04T11:17:40;100513.72;;;17.66;37.57
35716;BME280;21840;44.920;8.616;2023-03-04T11:20:27;100514.03;;;17.71;37.18
35716;BME280;21840;44.920;8.616;2023-03-04T11:22:54;100504.50;;;17.85;36.66
35716;BME280;21840;44.920;8.616;2023-03-04T11:25:26;100509.84;;;18.00;36.47
35716;BME280;21840;44.920;8.616;2023-03-04T11:27:55;100498.09;;;17.94;36.54
35716;BME280;21840;44.920;8.616;2023-03-04T11:38:36;100479.63;;;17.78;36.75
35716;BME280;21840;44.920;8.616;2023-03-04T11:43:38;100468.25;;;18.22;36.23
35716;BME280;21840;44.920;8.616;2023-03-04T12:03:13;100430.50;;;18.26;35.69
35716;BME280;21840;44.920;8.616;2023-03-04T12:08:52;100431.97;;;18.44;35.08
35716;BME280;21840;44.920;8.616;2023-03-04T12:14:24;100419.22;;;18.39;35.18
35716;BME280;21840;44.920;8.616;2023-03-04T12:33:33;100378.09;;;19.08;33.74
35716;BME280;21840;44.920;8.616;2023-03-04T12:36:21;100375.22;;;19.31;33.68
35716;BME280;21840;44.920;8.616;2023-03-04T12:38:59;100359.97;;;19.18;33.83
35716;BME280;21840;44.920;8.616;2023-03-04T12:44:23;100345.75;;;19.32;31.89
35716;BME280;21840;44.920;8.616;2023-03-04T12:52:21;100335.84;;;19.26;32.84
35716;BME280;21840;44.920;8.616;2023-03-04T12:55:01;100338.03;;;19.16;32.39
35716;BME280;21840;44.920;8.616;2023-03-04T12:57:27;100333.66;;;19.30;32.02
35716;BME280;21840;44.920;8.616;2023-03-04T13:05:26;100329.13;;;19.58;31.71
35716;BME280;21840;44.920;8.616;2023-03-04T13:10:23;100317.81;;;19.78;31.63
35716;BME280;21840;44.920;8.616;2023-03-04T13:13:00;100313.19;;;19.65;31.79
35716;BME280;21840;44.920;8.616;2023-03-04T13:15:32;100309.78;;;19.43;31.71
35716;BME280;21840;44.920;8.616;2023-03-04T13:20:43;100307.41;;;19.55;31.07
35716;BME280;21840;44.920;8.616;2023-03-04T13:25:47;100298.31;;;19.49;31.10
35716;BME280;21840;44.920;8.616;2023-03-04T13:41:31;100281.78;;;19.82;30.54
35716;BME280;21840;44.920;8.616;2023-03-04T13:44:02;100276.00;;;19.78;30.80
35716;BME280;21840;44.920;8.616;2023-03-04T13:46:39;100282.38;;;19.84;30.38
35716;BME280;21840;44.920;8.616;2023-03-04T13:49:14;100282.81;;;19.88;30.31
35716;BME280;21840;44.920;8.616;2023-03-04T13:51:43;100275.69;;;20.01;30.22
35716;BME280;21840;44.920;8.616;2023-03-04T13:56:45;100265.84;;;19.60;29.68
35716;BME280;21840;44.920;8.616;2023-03-04T13:59:43;100268.59;;;19.74;29.52
35716;BME280;21840;44.920;8.616;2023-03-04T14:02:16;100261.72;;;19.93;29.35
35716;BME280;21840;44.920;8.616;2023-03-04T14:07:31;100262.09;;;19.83;29.73
35716;BME280;21840;44.920;8.616;2023-03-04T14:12:40;100255.53;;;19.86;29.66
35716;BME280;21840;44.920;8.616;2023-03-04T14:15:23;100253.41;;;19.68;29.61
35716;BME280;21840;44.920;8.616;2023-03-04T14:17:52;100246.91;;;19.77;29.56
35716;BME280;21840;44.920;8.616;2023-03-04T14:20:34;100244.44;;;19.75;29.21
35716;BME280;21840;44.920;8.616;2023-03-04T14:23:02;100243.66;;;19.88;29.22
35716;BME280;21840;44.920;8.616;2023-03-04T14:25:33;100229.81;;;19.65;29.35
35716;BME280;21840;44.920;8.616;2023-03-04T14:28:16;100230.94;;;19.83;29.50
35716;BME280;21840;44.920;8.616;2023-03-04T14:30:50;100229.16;;;19.97;29.13
35716;BME280;21840;44.920;8.616;2023-03-04T14:33:29;100224.66;;;20.11;28.75
35716;BME280;21840;44.920;8.616;2023-03-04T14:35:58;100220.56;;;20.09;28.75
35716;BME280;21840;44.920;8.616;2023-03-04T14:38:37;100221.19;;;20.11;28.91
35716;BME280;21840;44.920;8.616;2023-03-04T14:43:59;100220.63;;;20.22;29.00
35716;BME280;21840;44.920;8.616;2023-03-04T14:46:31;100212.53;;;19.95;29.49
35716;BME280;21840;44.920;8.616;2023-03-04T14:48:58;100204.66;;;19.74;29.45
35716;BME280;21840;44.920;8.616;2023-03-04T14:51:46;100210.31;;;20.06;29.54
35716;BME280;21840;44.920;8.616;2023-03-04T14:56:55;100203.34;;;20.11;29.77
35716;BME280;21840;44.920;8.616;2023-03-04T14:59:31;100201.09;;;20.21;29.59